sensor_id;sensor_type;location;lat;lon;timestamp;P1;durP1;ratioP1;P2;durP2;ratioP2
44204;SDS011;30163;42.698;23.344;2023-02-04T00:00:21;20.95;;;10.55;;
44204;SDS011;30163;42.698;23.344;2023-02-04T00:02:47;22.73;;;11.63;;
44204;SDS011;30163;42.698;23.344;2023-02-04T00:05:12;25.98;;;10.43;;
44204;SDS011;30163;42.698;23.344;2023-02-04T00:07:38;17.50;;;10.23;;
44204;SDS011;30163;42.698;23.344;2023-02-04T00:10:04;19.23;;;10.73;;
44204;SDS011;30163;42.698;23.344;2023-02-04T00:12:30;21.85;;;10.35;;
44204;SDS011;30163;42.698;23.344;2023-02-04T00:14:57;20.48;;;10.02;;
44204;SDS011;30163;42.698;23.344;2023-02-04T00:17:23;17.17;;;9.77;;
44204;SDS011;30163;42.698;23.344;2023-02-04T00:19:48;19.77;;;9.60;;
44204;SDS011;30163;42.698;23.344;2023-02-04T00:22:13;16.67;;;9.57;;
44204;SDS011;30163;42.698;23.344;2023-02-04T00:24:39;16.25;;;9.05;;
44204;SDS011;30163;42.698;23.344;2023-02-04T00:27:06;15.85;;;8.25;;
44204;SDS011;30163;42.698;23.344;2023-02-04T00:29:32;16.40;;;9.05;;
44204;SDS011;30163;42.698;23.344;2023-02-04T00:31:57;17.48;;;9.05;;
44204;SDS011;30163;42.698;23.344;2023-02-04T00:34:23;22.45;;;9.40;;
44204;SDS011;30163;42.698;23.344;2023-02-04T00:36:48;21.88;;;9.60;;
44204;SDS011;30163;42.698;23.344;2023-02-04T00:39:14;20.13;;;8.93;;
44204;SDS011;30163;42.698;23.344;2023-02-04T00:41:39;18.23;;;8.90;;
44204;SDS011;30163;42.698;23.344;2023-02-04T00:44:05;18.63;;;9.35;;
44204;SDS011;30163;42.698;23.344;2023-02-04T00:46:30;24.33;;;9.23;;
44204;SDS011;30163;42.698;23.344;2023-02-04T00:48:56;20.20;;;9.18;;
44204;SDS011;30163;42.698;23.344;2023-02-04T00:51:21;14.63;;;8.48;;
44204;SDS011;30163;42.698;23.344;2023-02-04T00:53:46;16.23;;;8.05;;
44204;SDS011;30163;42.698;23.344;2023-02-04T00:56:12;18.65;;;7.97;;
44204;SDS011;30163;42.698;23.344;2023-02-04T00:58:37;16.00;;;7.53;;
44204;SDS011;30163;42.698;23.344;2023-02-04T01:01:03;17.13;;;7.22;;
44204;SDS011;30163;42.698;23.344;2023-02-04T01:03:28;19.33;;;8.35;;
44204;SDS011;30163;42.698;23.344;2023-02-04T01:05:54;15.88;;;8.18;;
44204;SDS011;30163;42.698;23.344;2023-02-04T01:08:19;20.83;;;8.95;;
44204;SDS011;30163;42.698;23.344;2023-02-04T01:10:44;15.02;;;7.38;;
44204;SDS011;30163;42.698;23.344;2023-02-04T01:13:10;13.25;;;7.57;;
44204;SDS011;30163;42.698;23.344;2023-02-04T01:15:35;15.98;;;8.80;;
44204;SDS011;30163;42.698;23.344;2023-02-04T01:18:01;13.77;;;7.20;;
44204;SDS011;30163;42.698;23.344;2023-02-04T01:20:26;36.28;;;8.40;;
44204;SDS011;30163;42.698;23.344;2023-02-04T01:22:52;14.90;;;8.00;;
44204;SDS011;30163;42.698;23.344;2023-02-04T01:25:17;15.55;;;8.00;;
44204;SDS011;30163;42.698;23.344;2023-02-04T01:27:43;15.00;;;8.18;;
44204;SDS011;30163;42.698;23.344;2023-02-04T01:30:09;16.00;;;9.23;;
44204;SDS011;30163;42.698;23.344;2023-02-04T01:32:36;19.17;;;9.55;;
44204;SDS011;30163;42.698;23.344;2023-02-04T01:35:02;25.63;;;10.55;;
44204;SDS011;30163;42.698;23.344;2023-02-04T01:37:27;18.88;;;10.75;;
44204;SDS011;30163;42.698;23.344;2023-02-04T01:39:53;20.30;;;10.35;;
44204;SDS011;30163;42.698;23.344;2023-02-04T01:42:18;29.08;;;10.05;;
44204;SDS011;30163;42.698;23.344;2023-02-04T01:44:44;16.02;;;8.88;;
44204;SDS011;30163;42.698;23.344;2023-02-04T01:47:09;20.90;;;9.18;;
44204;SDS011;30163;42.698;23.344;2023-02-04T01:49:35;23.38;;;9.20;;
44204;SDS011;30163;42.698;23.344;2023-02-04T01:52:01;20.80;;;8.90;;
44204;SDS011;30163;42.698;23.344;2023-02-04T01:54:27;23.38;;;9.07;;
44204;SDS011;30163;42.698;23.344;2023-02-04T01:56:52;29.65;;;9.18;;
44204;SDS011;30163;42.698;23.344;2023-02-04T01:59:19;19.67;;;9.15;;
44204;SDS011;30163;42.698;23.344;2023-02-04T02:01:46;14.52;;;8.13;;
44204;SDS011;30163;42.698;23.344;2023-02-04T02:04:15;20.48;;;9.73;;
44204;SDS011;30163;42.698;23.344;2023-02-04T02:06:50;21.25;;;10.80;;
44204;SDS011;30163;42.698;23.344;2023-02-04T02:09:18;25.15;;;11.52;;
44204;SDS011;30163;42.698;23.344;2023-02-04T02:11:43;25.38;;;12.25;;
44204;SDS011;30163;42.698;23.344;2023-02-04T02:14:09;18.95;;;10.95;;
44204;SDS011;30163;42.698;23.344;2023-02-04T02:16:34;22.48;;;10.57;;
44204;SDS011;30163;42.698;23.344;2023-02-04T02:19:00;30.00;;;11.15;;
44204;SDS011;30163;42.698;23.344;2023-02-04T02:21:29;21.92;;;10.38;;
44204;SDS011;30163;42.698;23.344;2023-02-04T02:24:26;24.00;;;11.65;;
44204;SDS011;30163;42.698;23.344;2023-02-04T02:26:53;24.00;;;12.70;;
44204;SDS011;30163;42.698;23.344;2023-02-04T02:29:19;31.00;;;11.90;;
44204;SDS011;30163;42.698;23.344;2023-02-04T02:31:45;29.40;;;11.35;;
44204;SDS011;30163;42.698;23.344;2023-02-04T02:34:10;24.60;;;11.38;;
44204;SDS011;30163;42.698;23.344;2023-02-04T02:36:36;26.35;;;12.60;;
44204;SDS011;30163;42.698;23.344;2023-02-04T02:39:01;25.70;;;11.30;;
44204;SDS011;30163;42.698;23.344;2023-02-04T02:41:27;26.67;;;11.73;;
44204;SDS011;30163;42.698;23.344;2023-02-04T02:43:52;24.73;;;11.13;;
44204;SDS011;30163;42.698;23.344;2023-02-04T02:46:18;21.00;;;11.45;;
44204;SDS011;30163;42.698;23.344;2023-02-04T02:48:43;28.08;;;11.55;;
44204;SDS011;30163;42.698;23.344;2023-02-04T02:51:08;24.27;;;12.20;;
44204;SDS011;30163;42.698;23.344;2023-02-04T02:53:34;19.67;;;10.48;;
44204;SDS011;30163;42.698;23.344;2023-02-04T02:56:00;32.75;;;12.00;;
44204;SDS011;30163;42.698;23.344;2023-02-04T02:58:29;23.05;;;11.65;;
44204;SDS011;30163;42.698;23.344;2023-02-04T03:01:02;23.50;;;12.73;;
44204;SDS011;30163;42.698;23.344;2023-02-04T03:03:30;36.20;;;12.10;;
44204;SDS011;30163;42.698;23.344;2023-02-04T03:05:59;26.92;;;12.75;;
44204;SDS011;30163;42.698;23.344;2023-02-04T03:08:36;20.92;;;12.18;;
44204;SDS011;30163;42.698;23.344;2023-02-04T03:11:01;25.35;;;12.27;;
44204;SDS011;30163;42.698;23.344;2023-02-04T03:13:27;23.13;;;12.70;;
44204;SDS011;30163;42.698;23.344;2023-02-04T03:15:53;28.13;;;13.23;;
44204;SDS011;30163;42.698;23.344;2023-02-04T03:18:18;31.02;;;14.93;;
44204;SDS011;30163;42.698;23.344;2023-02-04T03:20:44;30.83;;;14.65;;
44204;SDS011;30163;42.698;23.344;2023-02-04T03:23:10;33.42;;;15.48;;
44204;SDS011;30163;42.698;23.344;2023-02-04T03:25:36;25.42;;;13.65;;
44204;SDS011;30163;42.698;23.344;2023-02-04T03:28:01;30.73;;;14.75;;
44204;SDS011;30163;42.698;23.344;2023-02-04T03:30:27;41.67;;;15.18;;
44204;SDS011;30163;42.698;23.344;2023-02-04T03:32:53;31.38;;;13.70;;
44204;SDS011;30163;42.698;23.344;2023-02-04T03:35:19;32.17;;;15.27;;
44204;SDS011;30163;42.698;23.344;2023-02-04T03:37:45;29.80;;;11.93;;
44204;SDS011;30163;42.698;23.344;2023-02-04T03:40:10;28.65;;;12.88;;
44204;SDS011;30163;42.698;23.344;2023-02-04T03:42:36;25.00;;;12.38;;
44204;SDS011;30163;42.698;23.344;2023-02-04T03:45:01;30.23;;;12.45;;
44204;SDS011;30163;42.698;23.344;2023-02-04T03:47:27;22.23;;;11.45;;
44204;SDS011;30163;42.698;23.344;2023-02-04T03:49:52;28.55;;;12.63;;
44204;SDS011;30163;42.698;23.344;2023-02-04T03:52:18;19.50;;;10.23;;
44204;SDS011;30163;42.698;23.344;2023-02-04T03:54:44;19.40;;;11.25;;
44204;SDS011;30163;42.698;23.344;2023-02-04T03:57:10;25.70;;;12.05;;
44204;SDS011;30163;42.698;23.344;2023-02-04T03:59:35;27.25;;;12.48;;
44204;SDS011;30163;42.698;23.344;2023-02-04T04:02:01;22.90;;;11.73;;
44204;SDS011;30163;42.698;23.344;2023-02-04T04:04:26;25.80;;;12.07;;
44204;SDS011;30163;42.698;23.344;2023-02-04T04:06:51;26.40;;;13.57;;
44204;SDS011;30163;42.698;23.344;2023-02-04T04:09:17;25.20;;;14.20;;
44204;SDS011;30163;42.698;23.344;2023-02-04T04:11:42;22.90;;;12.98;;
44204;SDS011;30163;42.698;23.344;2023-02-04T04:14:08;31.33;;;13.48;;
44204;SDS011;30163;42.698;23.344;2023-02-04T04:16:33;29.73;;;14.90;;
44204;SDS011;30163;42.698;23.344;2023-02-04T04:18:58;40.55;;;14.07;;
44204;SDS011;30163;42.698;23.344;2023-02-04T04:21:24;25.92;;;13.15;;
44204;SDS011;30163;42.698;23.344;2023-02-04T04:23:49;34.40;;;13.90;;
44204;SDS011;30163;42.698;23.344;2023-02-04T04:26:15;27.15;;;13.13;;
44204;SDS011;30163;42.698;23.344;2023-02-04T04:28:41;25.40;;;12.52;;
44204;SDS011;30163;42.698;23.344;2023-02-04T04:31:08;32.65;;;15.23;;
44204;SDS011;30163;42.698;23.344;2023-02-04T04:33:33;35.65;;;14.30;;
44204;SDS011;30163;42.698;23.344;2023-02-04T04:35:59;40.45;;;15.65;;
44204;SDS011;30163;42.698;23.344;2023-02-04T04:38:24;32.55;;;14.38;;
44204;SDS011;30163;42.698;23.344;2023-02-04T04:40:49;28.80;;;13.27;;
44204;SDS011;30163;42.698;23.344;2023-02-04T04:43:15;33.70;;;14.23;;
44204;SDS011;30163;42.698;23.344;2023-02-04T04:45:40;35.97;;;16.50;;
44204;SDS011;30163;42.698;23.344;2023-02-04T04:48:06;27.92;;;13.82;;
44204;SDS011;30163;42.698;23.344;2023-02-04T04:50:31;24.38;;;12.27;;
44204;SDS011;30163;42.698;23.344;2023-02-04T04:52:56;23.80;;;10.25;;
44204;SDS011;30163;42.698;23.344;2023-02-04T04:55:22;21.63;;;10.77;;
44204;SDS011;30163;42.698;23.344;2023-02-04T04:57:47;23.98;;;10.93;;
44204;SDS011;30163;42.698;23.344;2023-02-04T05:00:14;21.88;;;10.05;;
44204;SDS011;30163;42.698;23.344;2023-02-04T05:02:41;22.75;;;10.23;;
44204;SDS011;30163;42.698;23.344;2023-02-04T05:05:07;20.48;;;8.93;;
44204;SDS011;30163;42.698;23.344;2023-02-04T05:07:33;22.88;;;10.07;;
44204;SDS011;30163;42.698;23.344;2023-02-04T05:09:58;26.52;;;9.48;;
44204;SDS011;30163;42.698;23.344;2023-02-04T05:12:23;16.75;;;4.60;;
44204;SDS011;30163;42.698;23.344;2023-02-04T05:14:49;7.22;;;3.38;;
44204;SDS011;30163;42.698;23.344;2023-02-04T05:17:14;4.90;;;2.97;;
44204;SDS011;30163;42.698;23.344;2023-02-04T05:19:40;5.68;;;2.55;;
44204;SDS011;30163;42.698;23.344;2023-02-04T05:22:05;5.25;;;2.70;;
44204;SDS011;30163;42.698;23.344;2023-02-04T05:24:31;4.50;;;2.35;;
44204;SDS011;30163;42.698;23.344;2023-02-04T05:26:56;3.45;;;2.38;;
44204;SDS011;30163;42.698;23.344;2023-02-04T05:29:21;4.05;;;2.28;;
44204;SDS011;30163;42.698;23.344;2023-02-04T05:31:47;6.90;;;2.30;;
44204;SDS011;30163;42.698;23.344;2023-02-04T05:34:12;10.50;;;2.60;;
44204;SDS011;30163;42.698;23.344;2023-02-04T05:36:37;5.38;;;2.78;;
44204;SDS011;30163;42.698;23.344;2023-02-04T05:39:03;4.80;;;2.13;;
44204;SDS011;30163;42.698;23.344;2023-02-04T05:41:28;5.00;;;2.90;;
44204;SDS011;30163;42.698;23.344;2023-02-04T05:43:53;8.82;;;2.80;;
44204;SDS011;30163;42.698;23.344;2023-02-04T05:46:19;7.07;;;2.17;;
44204;SDS011;30163;42.698;23.344;2023-02-04T05:48:44;6.15;;;2.50;;
44204;SDS011;30163;42.698;23.344;2023-02-04T05:51:10;24.42;;;3.78;;
44204;SDS011;30163;42.698;23.344;2023-02-04T05:53:35;4.72;;;2.55;;
44204;SDS011;30163;42.698;23.344;2023-02-04T05:56:00;6.25;;;2.30;;
44204;SDS011;30163;42.698;23.344;2023-02-04T05:58:26;10.50;;;2.85;;
44204;SDS011;30163;42.698;23.344;2023-02-04T06:00:57;6.55;;;2.72;;
44204;SDS011;30163;42.698;23.344;2023-02-04T06:03:26;7.25;;;3.38;;
44204;SDS011;30163;42.698;23.344;2023-02-04T06:05:51;5.25;;;3.00;;
44204;SDS011;30163;42.698;23.344;2023-02-04T06:08:17;8.32;;;3.53;;
44204;SDS011;30163;42.698;23.344;2023-02-04T06:10:42;6.47;;;3.20;;
44204;SDS011;30163;42.698;23.344;2023-02-04T06:13:08;10.80;;;3.85;;
44204;SDS011;30163;42.698;23.344;2023-02-04T06:15:33;8.80;;;4.03;;
44204;SDS011;30163;42.698;23.344;2023-02-04T06:17:59;7.85;;;5.10;;
44204;SDS011;30163;42.698;23.344;2023-02-04T06:20:24;28.42;;;11.13;;
44204;SDS011;30163;42.698;23.344;2023-02-04T06:22:50;16.45;;;5.57;;
44204;SDS011;30163;42.698;23.344;2023-02-04T06:25:16;13.35;;;5.25;;
44204;SDS011;30163;42.698;23.344;2023-02-04T06:27:42;8.32;;;4.95;;
44204;SDS011;30163;42.698;23.344;2023-02-04T06:30:09;9.52;;;2.72;;
44204;SDS011;30163;42.698;23.344;2023-02-04T06:32:34;9.50;;;4.35;;
44204;SDS011;30163;42.698;23.344;2023-02-04T06:35:00;14.20;;;4.47;;
44204;SDS011;30163;42.698;23.344;2023-02-04T06:37:25;6.90;;;4.00;;
44204;SDS011;30163;42.698;23.344;2023-02-04T06:39:51;8.93;;;3.95;;
44204;SDS011;30163;42.698;23.344;2023-02-04T06:42:18;6.57;;;3.15;;
44204;SDS011;30163;42.698;23.344;2023-02-04T06:44:43;6.95;;;3.03;;
44204;SDS011;30163;42.698;23.344;2023-02-04T06:47:09;9.23;;;4.07;;
44204;SDS011;30163;42.698;23.344;2023-02-04T06:49:34;10.35;;;3.35;;
44204;SDS011;30163;42.698;23.344;2023-02-04T06:52:00;7.35;;;3.53;;
44204;SDS011;30163;42.698;23.344;2023-02-04T06:54:25;6.22;;;2.78;;
44204;SDS011;30163;42.698;23.344;2023-02-04T06:56:50;10.20;;;3.25;;
44204;SDS011;30163;42.698;23.344;2023-02-04T06:59:16;14.25;;;3.95;;
44204;SDS011;30163;42.698;23.344;2023-02-04T07:01:41;7.22;;;3.88;;
44204;SDS011;30163;42.698;23.344;2023-02-04T07:04:06;6.32;;;3.40;;
44204;SDS011;30163;42.698;23.344;2023-02-04T07:06:32;12.68;;;4.75;;
44204;SDS011;30163;42.698;23.344;2023-02-04T07:08:57;10.93;;;3.55;;
44204;SDS011;30163;42.698;23.344;2023-02-04T07:11:23;12.73;;;7.63;;
44204;SDS011;30163;42.698;23.344;2023-02-04T07:13:48;9.45;;;4.28;;
44204;SDS011;30163;42.698;23.344;2023-02-04T07:16:13;16.23;;;3.55;;
44204;SDS011;30163;42.698;23.344;2023-02-04T07:18:39;6.18;;;2.80;;
44204;SDS011;30163;42.698;23.344;2023-02-04T07:21:04;10.13;;;3.85;;
44204;SDS011;30163;42.698;23.344;2023-02-04T07:23:30;8.25;;;3.25;;
44204;SDS011;30163;42.698;23.344;2023-02-04T07:25:55;5.38;;;3.47;;
44204;SDS011;30163;42.698;23.344;2023-02-04T07:28:23;11.80;;;3.65;;
44204;SDS011;30163;42.698;23.344;2023-02-04T07:30:49;14.10;;;4.38;;
44204;SDS011;30163;42.698;23.344;2023-02-04T07:33:14;11.45;;;3.53;;
44204;SDS011;30163;42.698;23.344;2023-02-04T07:35:39;16.48;;;5.20;;
44204;SDS011;30163;42.698;23.344;2023-02-04T07:38:05;4.82;;;3.05;;
44204;SDS011;30163;42.698;23.344;2023-02-04T07:40:30;10.60;;;4.07;;
44204;SDS011;30163;42.698;23.344;2023-02-04T07:42:56;12.10;;;3.78;;
44204;SDS011;30163;42.698;23.344;2023-02-04T07:45:21;11.13;;;3.55;;
44204;SDS011;30163;42.698;23.344;2023-02-04T07:47:47;13.10;;;3.88;;
44204;SDS011;30163;42.698;23.344;2023-02-04T07:50:12;20.15;;;4.05;;
44204;SDS011;30163;42.698;23.344;2023-02-04T07:52:38;11.00;;;3.10;;
44204;SDS011;30163;42.698;23.344;2023-02-04T07:55:04;14.00;;;3.92;;
44204;SDS011;30163;42.698;23.344;2023-02-04T07:57:30;11.20;;;4.32;;
44204;SDS011;30163;42.698;23.344;2023-02-04T07:59:55;6.30;;;3.60;;
44204;SDS011;30163;42.698;23.344;2023-02-04T08:02:21;10.75;;;4.55;;
44204;SDS011;30163;42.698;23.344;2023-02-04T08:04:46;19.45;;;4.15;;
44204;SDS011;30163;42.698;23.344;2023-02-04T08:07:12;5.22;;;3.20;;
44204;SDS011;30163;42.698;23.344;2023-02-04T08:09:37;13.55;;;3.55;;
44204;SDS011;30163;42.698;23.344;2023-02-04T08:12:02;12.20;;;4.25;;
44204;SDS011;30163;42.698;23.344;2023-02-04T08:14:28;8.50;;;4.43;;
44204;SDS011;30163;42.698;23.344;2023-02-04T08:16:53;6.60;;;3.95;;
44204;SDS011;30163;42.698;23.344;2023-02-04T08:19:19;13.65;;;3.92;;
44204;SDS011;30163;42.698;23.344;2023-02-04T08:21:45;3.40;;;2.20;;
44204;SDS011;30163;42.698;23.344;2023-02-04T08:24:11;5.43;;;2.53;;
44204;SDS011;30163;42.698;23.344;2023-02-04T08:26:37;9.32;;;3.25;;
44204;SDS011;30163;42.698;23.344;2023-02-04T08:29:03;5.78;;;2.80;;
44204;SDS011;30163;42.698;23.344;2023-02-04T08:31:29;12.27;;;3.17;;
44204;SDS011;30163;42.698;23.344;2023-02-04T08:33:54;8.02;;;3.40;;
44204;SDS011;30163;42.698;23.344;2023-02-04T08:36:19;10.00;;;2.50;;
44204;SDS011;30163;42.698;23.344;2023-02-04T08:38:45;5.72;;;3.83;;
44204;SDS011;30163;42.698;23.344;2023-02-04T08:41:10;14.00;;;4.05;;
44204;SDS011;30163;42.698;23.344;2023-02-04T08:43:36;10.98;;;3.42;;
44204;SDS011;30163;42.698;23.344;2023-02-04T08:46:01;6.95;;;3.60;;
44204;SDS011;30163;42.698;23.344;2023-02-04T08:48:27;8.18;;;3.95;;
44204;SDS011;30163;42.698;23.344;2023-02-04T08:50:52;9.63;;;4.10;;
44204;SDS011;30163;42.698;23.344;2023-02-04T08:53:18;5.63;;;3.83;;
44204;SDS011;30163;42.698;23.344;2023-02-04T08:55:44;9.63;;;4.75;;
44204;SDS011;30163;42.698;23.344;2023-02-04T08:58:10;5.35;;;3.22;;
44204;SDS011;30163;42.698;23.344;2023-02-04T09:00:35;10.18;;;4.20;;
44204;SDS011;30163;42.698;23.344;2023-02-04T09:03:00;10.52;;;3.92;;
44204;SDS011;30163;42.698;23.344;2023-02-04T09:05:26;12.07;;;4.70;;
44204;SDS011;30163;42.698;23.344;2023-02-04T09:07:51;9.82;;;4.70;;
44204;SDS011;30163;42.698;23.344;2023-02-04T09:10:16;5.90;;;3.63;;
44204;SDS011;30163;42.698;23.344;2023-02-04T09:12:42;15.02;;;4.20;;
44204;SDS011;30163;42.698;23.344;2023-02-04T09:15:08;11.07;;;4.18;;
44204;SDS011;30163;42.698;23.344;2023-02-04T09:17:34;8.48;;;2.75;;
44204;SDS011;30163;42.698;23.344;2023-02-04T09:20:00;7.75;;;4.72;;
44204;SDS011;30163;42.698;23.344;2023-02-04T09:22:25;9.63;;;4.25;;
44204;SDS011;30163;42.698;23.344;2023-02-04T09:24:51;11.20;;;5.10;;
44204;SDS011;30163;42.698;23.344;2023-02-04T09:27:16;13.80;;;5.63;;
44204;SDS011;30163;42.698;23.344;2023-02-04T09:29:41;22.13;;;6.72;;
44204;SDS011;30163;42.698;23.344;2023-02-04T09:32:07;17.67;;;6.50;;
44204;SDS011;30163;42.698;23.344;2023-02-04T09:34:32;7.55;;;3.75;;
44204;SDS011;30163;42.698;23.344;2023-02-04T09:36:58;14.43;;;5.32;;
44204;SDS011;30163;42.698;23.344;2023-02-04T09:39:23;7.15;;;3.15;;
44204;SDS011;30163;42.698;23.344;2023-02-04T09:41:48;6.57;;;4.28;;
44204;SDS011;30163;42.698;23.344;2023-02-04T09:44:16;8.75;;;4.03;;
44204;SDS011;30163;42.698;23.344;2023-02-04T09:46:47;12.13;;;4.38;;
44204;SDS011;30163;42.698;23.344;2023-02-04T09:49:14;14.70;;;5.80;;
44204;SDS011;30163;42.698;23.344;2023-02-04T09:51:39;6.75;;;3.58;;
44204;SDS011;30163;42.698;23.344;2023-02-04T09:54:06;8.85;;;4.20;;
44204;SDS011;30163;42.698;23.344;2023-02-04T09:56:33;12.57;;;4.53;;
44204;SDS011;30163;42.698;23.344;2023-02-04T09:58:59;8.40;;;3.88;;
44204;SDS011;30163;42.698;23.344;2023-02-04T10:01:25;6.85;;;3.85;;
44204;SDS011;30163;42.698;23.344;2023-02-04T10:03:59;9.55;;;4.20;;
44204;SDS011;30163;42.698;23.344;2023-02-04T10:06:25;15.48;;;4.55;;
44204;SDS011;30163;42.698;23.344;2023-02-04T10:08:50;4.85;;;3.15;;
44204;SDS011;30163;42.698;23.344;2023-02-04T10:11:17;9.57;;;4.38;;
44204;SDS011;30163;42.698;23.344;2023-02-04T10:13:44;7.85;;;4.47;;
44204;SDS011;30163;42.698;23.344;2023-02-04T10:16:20;8.45;;;3.83;;
44204;SDS011;30163;42.698;23.344;2023-02-04T10:18:47;6.25;;;3.97;;
44204;SDS011;30163;42.698;23.344;2023-02-04T10:21:17;6.65;;;3.75;;
44204;SDS011;30163;42.698;23.344;2023-02-04T10:23:46;11.48;;;4.10;;
44204;SDS011;30163;42.698;23.344;2023-02-04T10:26:14;4.80;;;2.83;;
44204;SDS011;30163;42.698;23.344;2023-02-04T10:28:40;2.90;;;2.13;;
44204;SDS011;30163;42.698;23.344;2023-02-04T10:31:08;6.15;;;3.85;;
44204;SDS011;30163;42.698;23.344;2023-02-04T10:34:01;7.78;;;4.03;;
44204;SDS011;30163;42.698;23.344;2023-02-04T10:36:30;11.20;;;4.55;;
44204;SDS011;30163;42.698;23.344;2023-02-04T10:38:59;11.77;;;5.78;;
44204;SDS011;30163;42.698;23.344;2023-02-04T10:41:28;6.95;;;3.25;;
44204;SDS011;30163;42.698;23.344;2023-02-04T10:44:01;6.45;;;2.83;;
44204;SDS011;30163;42.698;23.344;2023-02-04T10:46:29;7.85;;;3.35;;
44204;SDS011;30163;42.698;23.344;2023-02-04T10:48:56;3.53;;;2.58;;
44204;SDS011;30163;42.698;23.344;2023-02-04T10:51:21;6.68;;;3.60;;
44204;SDS011;30163;42.698;23.344;2023-02-04T10:53:47;7.03;;;3.70;;
44204;SDS011;30163;42.698;23.344;2023-02-04T10:56:31;7.90;;;4.38;;
44204;SDS011;30163;42.698;23.344;2023-02-04T10:58:56;12.02;;;5.53;;
44204;SDS011;30163;42.698;23.344;2023-02-04T11:01:23;7.05;;;2.90;;
44204;SDS011;30163;42.698;23.344;2023-02-04T11:03:50;6.05;;;2.95;;
44204;SDS011;30163;42.698;23.344;2023-02-04T11:06:19;8.07;;;3.75;;
44204;SDS011;30163;42.698;23.344;2023-02-04T11:08:46;21.83;;;10.55;;
44204;SDS011;30163;42.698;23.344;2023-02-04T11:11:16;5.82;;;3.70;;
44204;SDS011;30163;42.698;23.344;2023-02-04T11:24:04;7.55;;;3.38;;
44204;SDS011;30163;42.698;23.344;2023-02-04T11:26:38;7.72;;;4.07;;
44204;SDS011;30163;42.698;23.344;2023-02-04T11:36:55;3.28;;;2.47;;
44204;SDS011;30163;42.698;23.344;2023-02-04T11:44:48;4.60;;;3.28;;
44204;SDS011;30163;42.698;23.344;2023-02-04T11:47:18;5.25;;;3.33;;
44204;SDS011;30163;42.698;23.344;2023-02-04T11:49:45;7.45;;;3.58;;
44204;SDS011;30163;42.698;23.344;2023-02-04T11:52:17;5.68;;;3.20;;
44204;SDS011;30163;42.698;23.344;2023-02-04T11:54:42;8.85;;;3.67;;
44204;SDS011;30163;42.698;23.344;2023-02-04T11:57:17;9.65;;;3.40;;
44204;SDS011;30163;42.698;23.344;2023-02-04T11:59:42;5.45;;;2.28;;
44204;SDS011;30163;42.698;23.344;2023-02-04T12:02:21;6.20;;;3.17;;
44204;SDS011;30163;42.698;23.344;2023-02-04T12:07:22;7.97;;;2.90;;
44204;SDS011;30163;42.698;23.344;2023-02-04T12:09:49;6.85;;;3.47;;
44204;SDS011;30163;42.698;23.344;2023-02-04T12:12:28;8.60;;;4.05;;
44204;SDS011;30163;42.698;23.344;2023-02-04T12:15:08;4.13;;;2.40;;
44204;SDS011;30163;42.698;23.344;2023-02-04T12:18:07;4.80;;;3.35;;
44204;SDS011;30163;42.698;23.344;2023-02-04T12:20:37;9.95;;;3.53;;
44204;SDS011;30163;42.698;23.344;2023-02-04T12:23:03;11.02;;;3.95;;
44204;SDS011;30163;42.698;23.344;2023-02-04T12:25:29;8.07;;;4.38;;
44204;SDS011;30163;42.698;23.344;2023-02-04T12:27:55;6.50;;;3.58;;
44204;SDS011;30163;42.698;23.344;2023-02-04T12:30:21;6.78;;;3.72;;
44204;SDS011;30163;42.698;23.344;2023-02-04T12:32:47;7.70;;;3.85;;
44204;SDS011;30163;42.698;23.344;2023-02-04T12:35:12;7.90;;;3.63;;
44204;SDS011;30163;42.698;23.344;2023-02-04T12:37:38;10.23;;;4.00;;
44204;SDS011;30163;42.698;23.344;2023-02-04T12:40:04;9.50;;;4.07;;
44204;SDS011;30163;42.698;23.344;2023-02-04T12:42:29;8.77;;;4.45;;
44204;SDS011;30163;42.698;23.344;2023-02-04T12:44:55;10.85;;;5.03;;
44204;SDS011;30163;42.698;23.344;2023-02-04T12:47:20;7.88;;;4.07;;
44204;SDS011;30163;42.698;23.344;2023-02-04T12:49:46;6.20;;;4.22;;
44204;SDS011;30163;42.698;23.344;2023-02-04T12:52:12;6.65;;;4.03;;
44204;SDS011;30163;42.698;23.344;2023-02-04T12:54:37;7.68;;;4.32;;
44204;SDS011;30163;42.698;23.344;2023-02-04T12:57:03;10.15;;;4.20;;
44204;SDS011;30163;42.698;23.344;2023-02-04T12:59:28;7.20;;;4.15;;
44204;SDS011;30163;42.698;23.344;2023-02-04T13:01:55;9.88;;;3.30;;
44204;SDS011;30163;42.698;23.344;2023-02-04T13:04:21;4.47;;;2.78;;
44204;SDS011;30163;42.698;23.344;2023-02-04T13:06:46;10.82;;;4.00;;
44204;SDS011;30163;42.698;23.344;2023-02-04T13:09:12;6.35;;;3.47;;
44204;SDS011;30163;42.698;23.344;2023-02-04T13:11:37;4.95;;;2.97;;
44204;SDS011;30163;42.698;23.344;2023-02-04T13:14:02;6.60;;;3.58;;
44204;SDS011;30163;42.698;23.344;2023-02-04T13:16:28;9.00;;;4.10;;
44204;SDS011;30163;42.698;23.344;2023-02-04T13:18:53;9.48;;;4.45;;
44204;SDS011;30163;42.698;23.344;2023-02-04T13:21:19;5.40;;;3.15;;
44204;SDS011;30163;42.698;23.344;2023-02-04T13:23:44;2.95;;;2.25;;
44204;SDS011;30163;42.698;23.344;2023-02-04T13:26:09;4.22;;;2.63;;
44204;SDS011;30163;42.698;23.344;2023-02-04T13:28:35;2.67;;;2.03;;
44204;SDS011;30163;42.698;23.344;2023-02-04T13:31:01;3.15;;;2.15;;
44204;SDS011;30163;42.698;23.344;2023-02-04T13:33:26;2.38;;;1.73;;
44204;SDS011;30163;42.698;23.344;2023-02-04T13:35:51;4.28;;;2.33;;
44204;SDS011;30163;42.698;23.344;2023-02-04T13:38:17;2.33;;;1.73;;
44204;SDS011;30163;42.698;23.344;2023-02-04T13:40:42;4.25;;;1.83;;
44204;SDS011;30163;42.698;23.344;2023-02-04T13:43:08;2.45;;;2.05;;
44204;SDS011;30163;42.698;23.344;2023-02-04T13:45:33;3.10;;;2.42;;
44204;SDS011;30163;42.698;23.344;2023-02-04T13:47:59;5.78;;;2.92;;
44204;SDS011;30163;42.698;23.344;2023-02-04T13:50:24;1.60;;;1.50;;
44204;SDS011;30163;42.698;23.344;2023-02-04T13:52:50;2.90;;;2.35;;
44204;SDS011;30163;42.698;23.344;2023-02-04T13:55:15;2.72;;;2.20;;
44204;SDS011;30163;42.698;23.344;2023-02-04T13:57:41;2.63;;;1.88;;
44204;SDS011;30163;42.698;23.344;2023-02-04T14:00:06;4.32;;;2.92;;
44204;SDS011;30163;42.698;23.344;2023-02-04T14:02:32;3.35;;;2.70;;
44204;SDS011;30163;42.698;23.344;2023-02-04T14:04:58;7.85;;;3.20;;
44204;SDS011;30163;42.698;23.344;2023-02-04T14:07:23;5.55;;;3.53;;
44204;SDS011;30163;42.698;23.344;2023-02-04T14:09:49;7.72;;;4.18;;
44204;SDS011;30163;42.698;23.344;2023-02-04T14:12:14;9.07;;;3.30;;
44204;SDS011;30163;42.698;23.344;2023-02-04T14:14:40;7.75;;;4.53;;
44204;SDS011;30163;42.698;23.344;2023-02-04T14:17:05;5.57;;;3.67;;
44204;SDS011;30163;42.698;23.344;2023-02-04T14:19:31;6.43;;;4.03;;
44204;SDS011;30163;42.698;23.344;2023-02-04T14:21:57;6.68;;;3.97;;
44204;SDS011;30163;42.698;23.344;2023-02-04T14:24:22;8.18;;;4.03;;
44204;SDS011;30163;42.698;23.344;2023-02-04T14:26:48;7.78;;;3.88;;
44204;SDS011;30163;42.698;23.344;2023-02-04T14:29:14;7.68;;;4.18;;
44204;SDS011;30163;42.698;23.344;2023-02-04T14:31:40;4.47;;;2.72;;
44204;SDS011;30163;42.698;23.344;2023-02-04T14:34:08;3.05;;;2.60;;
44204;SDS011;30163;42.698;23.344;2023-02-04T14:36:34;3.65;;;2.90;;
44204;SDS011;30163;42.698;23.344;2023-02-04T14:38:59;2.80;;;2.25;;
44204;SDS011;30163;42.698;23.344;2023-02-04T14:41:24;2.85;;;2.20;;
44204;SDS011;30163;42.698;23.344;2023-02-04T14:43:50;3.95;;;2.72;;